Staten Island, New York
Current Conditions -  °F | °C
As of 5:35 AM on Thursday 23 Oct 2014 (Local Time) from KLDJ Reporting Station
Light Rain Light Rain  
Wind Chill: 55°   Ceiling: 2800
Heat Index: 55°   Visibility: 5mi
Dew Point: 51°   Wind: 10mph
Humidity: 85%   Direction: 350°N
Pressure: 29.73"   Gusts: NA
Location:  40.58°N, 74.13°W
Report Text: KLDJ 230935Z AUTO 35009KT 330V030 5SM -RA SCT023 BKN028 OVC039 13/11 A2973 RMK AO2 P0001 T01300106
Loading
Personal Weather Stations






























Interactive Weather Map New forecast layout! Learn more

10-Day Weather Forecast

Advertisements
Track Severe Weather on mobile